Time;durP1;ratioP1;P1;durP2;ratioP2;P2;SDS_P1;SDS_P2;PMS_P1;PMS_P2;Temp;Humidity;BMP_temperature;BMP_pressure;BME280_temperature;BME280_humidity;BME280_pressure;Samples;Min_cycle;Max_cycle;Signal;HPM_P1;HPM_P2
2021/12/12 00:00:31;;;;;;;;;;;4.60;99.90;;;;;;5038693;28;20484;-66
2021/12/12 00:03:02;;;;;;;26.85;12.75;;;4.60;99.90;;;;;;5038554;28;19925;-66
2021/12/12 00:05:45;;;;;;;32.15;13.88;;;4.60;99.90;;;;;;5035446;28;20270;-66
2021/12/12 00:08:12;;;;;;;32.95;14.13;;;4.60;99.90;;;;;;5041101;28;20565;-66
2021/12/12 00:10:42;;;;;;;33.30;14.40;;;4.60;99.90;;;;;;5039649;28;20045;-66
2021/12/12 00:13:12;;;;;;;30.75;13.75;;;4.70;99.90;;;;;;5040775;28;20044;-66
2021/12/12 00:15:38;;;;;;;30.70;14.52;;;4.60;99.90;;;;;;5018567;28;20079;-66
2021/12/12 00:18:04;;;;;;;35.97;15.05;;;4.70;99.90;;;;;;5038769;28;20343;-66
2021/12/12 00:20:32;;;;;;;32.80;14.00;;;4.70;99.90;;;;;;5043023;28;20124;-66
2021/12/12 00:22:59;;;;;;;34.05;14.43;;;4.70;99.90;;;;;;5023663;28;20331;-66
2021/12/12 00:25:28;;;;;;;39.20;14.05;;;4.60;99.90;;;;;;5037608;28;20094;-66
2021/12/12 00:27:53;;;;;;;29.75;14.13;;;4.70;99.90;;;;;;5041243;28;20084;-66
2021/12/12 00:30:19;;;;;;;27.30;13.60;;;4.70;99.90;;;;;;5038849;28;20045;-66
2021/12/12 00:32:45;;;;;;;32.57;13.63;;;4.70;99.90;;;;;;5035586;28;20051;-66
2021/12/12 00:35:14;;;;;;;34.83;13.93;;;4.70;99.90;;;;;;5019399;28;20147;-66
2021/12/12 00:37:41;;;;;;;28.48;13.63;;;4.70;99.90;;;;;;5023758;28;20044;-66
2021/12/12 00:40:20;;;;;;;32.88;14.45;;;4.70;99.90;;;;;;5041429;28;20033;-66
2021/12/12 00:42:47;;;;;;;30.75;14.73;;;4.70;99.90;;;;;;5032988;28;20112;-66
2021/12/12 00:45:15;;;;;;;34.20;14.18;;;4.70;99.90;;;;;;5035916;28;20045;-66
2021/12/12 00:47:43;;;;;;;33.85;15.15;;;4.70;99.90;;;;;;5018130;28;20119;-66
2021/12/12 00:50:28;;;;;;;28.25;14.45;;;4.70;99.90;;;;;;5019128;28;20119;-66
2021/12/12 00:52:56;;;;;;;31.60;14.10;;;4.80;99.90;;;;;;5041266;28;20175;-66
2021/12/12 00:55:23;;;;;;;31.13;13.07;;;4.80;99.90;;;;;;5037179;28;20121;-66
2021/12/12 00:57:54;;;;;;;29.20;13.82;;;4.80;99.90;;;;;;5035707;28;20065;-66
2021/12/12 01:00:30;;;;;;;27.15;15.57;;;4.80;99.90;;;;;;5030492;28;20033;-67
2021/12/12 01:02:58;;;;;;;27.98;14.43;;;4.80;99.90;;;;;;5038468;28;20040;-66
2021/12/12 01:05:26;;;;;;;38.20;15.07;;;4.80;99.90;;;;;;5035259;28;20037;-67
2021/12/12 01:07:52;;;;;;;35.58;13.73;;;4.80;99.90;;;;;;5036936;28;20055;-70
2021/12/12 01:10:31;;;;;;;35.20;14.73;;;4.80;99.90;;;;;;5022870;28;20044;-67
2021/12/12 01:12:58;;;;;;;30.92;14.57;;;4.80;99.90;;;;;;5019448;28;20081;-70
2021/12/12 01:15:34;;;;;;;33.78;13.57;;;4.80;99.90;;;;;;5015335;28;20032;-67
2021/12/12 01:18:06;;;;;;;29.13;13.45;;;4.80;99.90;;;;;;5041198;28;20272;-67
2021/12/12 01:20:38;;;;;;;32.65;14.80;;;4.80;99.90;;;;;;5023899;28;20033;-67
2021/12/12 01:23:45;;;;;;;33.22;14.82;;;4.80;99.90;;;;;;5018967;28;20032;-67
2021/12/12 01:26:11;;;;;;;37.15;14.63;;;4.80;99.90;;;;;;4988513;28;20052;-67
2021/12/12 01:28:39;;;;;;;35.25;14.93;;;4.80;99.90;;;;;;5015464;28;20033;-67
2021/12/12 01:31:09;;;;;;;28.30;14.65;;;4.80;99.90;;;;;;5038079;28;20052;-67
2021/12/12 01:33:36;;;;;;;30.23;13.60;;;4.80;99.90;;;;;;5034107;28;20071;-68
2021/12/12 01:36:07;;;;;;;28.88;14.82;;;4.80;99.90;;;;;;5035003;28;20039;-67
2021/12/12 01:38:52;;;;;;;37.88;16.00;;;4.80;99.90;;;;;;5040286;28;20041;-67
2021/12/12 01:41:26;;;;;;;34.55;15.20;;;4.80;99.90;;;;;;5038685;28;20036;-67
2021/12/12 01:43:57;;;;;;;30.92;14.07;;;4.80;99.90;;;;;;5035018;28;20059;-67
2021/12/12 01:46:28;;;;;;;29.45;14.18;;;4.80;99.90;;;;;;5033331;28;20094;-68
2021/12/12 01:49:02;;;;;;;38.63;14.38;;;4.80;99.90;;;;;;5031732;28;20115;-68
2021/12/12 01:51:28;;;;;;;33.47;13.70;;;4.80;99.90;;;;;;5039137;28;20076;-68
2021/12/12 01:53:57;;;;;;;31.30;13.63;;;4.80;99.90;;;;;;5035855;28;20040;-67
2021/12/12 01:56:35;;;;;;;36.20;14.15;;;4.80;99.90;;;;;;5011743;28;20040;-67
2021/12/12 01:59:03;;;;;;;;;;;4.90;99.90;;;;;;5032734;28;20116;-67
2021/12/12 02:01:35;;;;;;;35.42;13.45;;;4.80;99.90;;;;;;5033528;28;19925;-67
2021/12/12 02:04:07;;;;;;;35.33;13.90;;;4.80;99.90;;;;;;5036577;28;20041;-67
2021/12/12 02:06:33;;;;;;;31.58;13.68;;;4.90;99.90;;;;;;5017847;28;20062;-67
2021/12/12 02:09:06;;;;;;;39.80;14.63;;;4.90;99.90;;;;;;5035444;28;20499;-67
2021/12/12 02:11:34;;;;;;;40.50;14.40;;;4.80;99.90;;;;;;5038732;28;21044;-67
2021/12/12 02:14:08;;;;;;;34.90;13.68;;;4.90;99.90;;;;;;5031566;28;20171;-67
2021/12/12 02:16:37;;;;;;;29.88;14.15;;;4.90;99.90;;;;;;5031566;28;20079;-67
2021/12/12 02:19:04;;;;;;;26.55;14.40;;;4.90;99.90;;;;;;5020625;28;20045;-67
2021/12/12 02:35:06;;;;;;;29.90;14.15;;;4.90;99.90;;;;;;5048863;28;20056;-82
2021/12/12 02:35:48;;;;;;;31.33;13.27;;;4.90;99.90;;;;;;5033375;28;20113;-83
2021/12/12 02:46:04;;;;;;;;;;;5.00;99.90;;;;;;4955333;23;20067;-71
2021/12/12 02:48:36;;;;;;;28.48;10.55;;;4.90;99.90;;;;;;5019050;28;19928;-71
2021/12/12 02:51:09;;;;;;;28.85;12.13;;;5.00;99.90;;;;;;5018334;28;20256;-72
2021/12/12 02:53:54;;;;;;;29.17;11.75;;;5.00;99.90;;;;;;5017570;28;20029;-70
2021/12/12 02:56:33;;;;;;;22.92;12.18;;;5.10;99.90;;;;;;5028227;28;20052;-72
2021/12/12 02:59:03;;;;;;;31.83;11.65;;;5.10;99.90;;;;;;5038879;28;20044;-72
2021/12/12 03:01:55;;;;;;;24.17;11.73;;;5.10;99.90;;;;;;5019572;28;20579;-72
2021/12/12 03:04:25;;;;;;;30.92;11.85;;;5.10;99.90;;;;;;5003410;28;20425;-72
2021/12/12 03:06:52;;;;;;;32.42;11.98;;;5.10;99.90;;;;;;5005457;28;20044;-72
2021/12/12 03:09:26;;;;;;;29.00;11.88;;;5.10;99.90;;;;;;5017535;28;20052;-72
2021/12/12 03:12:03;;;;;;;25.17;11.60;;;5.20;99.90;;;;;;5029082;28;20048;-72
2021/12/12 03:14:33;;;;;;;25.38;11.80;;;5.10;99.90;;;;;;5009822;28;20045;-73
2021/12/12 03:17:07;;;;;;;25.13;11.55;;;5.20;99.90;;;;;;5019192;28;20029;-73
2021/12/12 03:19:35;;;;;;;29.45;11.45;;;5.20;99.90;;;;;;5004586;28;20547;-73
2021/12/12 03:22:06;;;;;;;26.48;11.55;;;5.20;99.90;;;;;;5023178;28;20032;-73
2021/12/12 03:24:33;;;;;;;20.73;11.23;;;5.30;99.90;;;;;;5000799;28;20073;-73
2021/12/12 03:27:04;;;;;;;20.80;10.85;;;5.20;99.90;;;;;;5022275;28;20076;-72
2021/12/12 03:29:32;;;;;;;21.08;11.38;;;5.30;99.90;;;;;;5010587;28;20041;-73
2021/12/12 03:32:04;;;;;;;23.33;11.18;;;5.30;99.90;;;;;;5020638;28;20501;-72
2021/12/12 03:34:34;;;;;;;25.42;10.88;;;5.30;99.90;;;;;;5038326;28;20048;-72
2021/12/12 03:37:05;;;;;;;17.38;9.50;;;5.30;99.90;;;;;;5004164;28;20045;-72
2021/12/12 03:39:37;;;;;;;19.23;10.25;;;5.30;99.90;;;;;;5021934;28;20037;-73
2021/12/12 03:42:15;;;;;;;22.13;9.25;;;5.20;99.90;;;;;;5023529;28;20167;-73
2021/12/12 03:44:41;;;;;;;16.20;8.93;;;5.30;99.90;;;;;;5008346;28;20197;-72
2021/12/12 03:47:15;;;;;;;21.30;8.93;;;5.20;99.90;;;;;;5024586;28;20319;-73
2021/12/12 03:49:42;;;;;;;19.05;9.45;;;5.30;99.90;;;;;;5010092;28;20086;-72
2021/12/12 03:52:15;;;;;;;19.63;9.05;;;5.30;99.90;;;;;;5020085;28;20099;-73
2021/12/12 03:54:43;;;;;;;13.18;7.40;;;5.30;99.90;;;;;;5018864;28;20047;-73
2021/12/12 03:57:10;;;;;;;16.02;7.80;;;5.30;99.90;;;;;;5040880;28;20066;-72
2021/12/12 03:59:37;;;;;;;18.55;8.00;;;5.40;99.90;;;;;;5027314;28;20118;-73
2021/12/12 04:02:06;;;;;;;19.20;6.88;;;5.40;99.90;;;;;;5007412;28;20168;-72
2021/12/12 04:04:38;;;;;;;16.63;7.90;;;5.40;99.90;;;;;;5026964;28;20098;-72
2021/12/12 04:07:15;;;;;;;17.23;7.40;;;5.40;99.90;;;;;;5037546;28;20037;-73
2021/12/12 04:09:42;;;;;;;16.77;7.43;;;5.40;99.90;;;;;;5006476;28;20033;-72
2021/12/12 04:12:11;;;;;;;14.32;7.40;;;5.50;99.90;;;;;;5005559;28;20071;-73
2021/12/12 04:14:38;;;;;;;13.98;7.05;;;5.50;99.90;;;;;;5004290;28;20083;-73
2021/12/12 04:17:11;;;;;;;11.57;5.97;;;5.50;99.90;;;;;;5022901;28;20045;-73
2021/12/12 04:19:40;;;;;;;12.07;6.30;;;5.50;99.90;;;;;;5025667;28;20048;-73
2021/12/12 04:22:07;;;;;;;13.80;7.20;;;5.50;99.90;;;;;;5002756;28;20132;-73
2021/12/12 04:24:39;;;;;;;9.98;6.63;;;5.50;99.90;;;;;;5015000;28;20044;-72
2021/12/12 04:27:08;;;;;;;10.88;6.10;;;5.50;99.90;;;;;;5026993;28;20071;-72
2021/12/12 04:29:41;;;;;;;10.00;6.60;;;5.60;99.90;;;;;;5028397;28;20033;-73
2021/12/12 04:32:11;;;;;;;11.52;6.07;;;5.60;99.90;;;;;;5023306;28;20024;-72
2021/12/12 04:34:43;;;;;;;11.00;6.15;;;5.60;99.90;;;;;;5021858;28;20202;-73
2021/12/12 04:37:10;;;;;;;10.68;6.05;;;5.60;99.90;;;;;;5010258;28;20393;-73
2021/12/12 04:39:42;;;;;;;12.65;6.03;;;5.70;99.90;;;;;;5006006;28;20029;-72
2021/12/12 04:42:13;;;;;;;11.60;6.20;;;5.60;99.90;;;;;;5002247;28;20033;-73
2021/12/12 04:44:40;;;;;;;14.73;6.07;;;5.70;99.90;;;;;;5023279;28;20045;-72
2021/12/12 04:49:56;;;;;;;10.70;5.90;;;5.70;99.90;;;;;;5017294;28;20425;-73
2021/12/12 04:52:41;;;;;;;8.85;5.72;;;5.70;99.90;;;;;;5020474;28;20045;-72
2021/12/12 04:55:20;;;;;;;12.85;5.97;;;5.70;99.90;;;;;;5018108;28;21026;-72
2021/12/12 04:58:10;;;;;;;11.63;6.35;;;5.70;99.90;;;;;;5004179;28;20042;-72
2021/12/12 05:00:49;;;;;;;9.50;5.57;;;5.70;99.90;;;;;;5015582;28;20093;-73
2021/12/12 05:03:40;;;;;;;10.73;6.03;;;5.70;99.90;;;;;;5025587;28;20044;-73
2021/12/12 05:06:28;;;;;;;10.55;5.90;;;5.70;99.90;;;;;;5036616;28;20081;-73
2021/12/12 05:09:04;;;;;;;10.32;6.35;;;5.70;99.90;;;;;;5019296;28;20036;-72
2021/12/12 05:11:53;;;;;;;12.77;6.40;;;5.70;99.90;;;;;;5018927;28;20036;-72
2021/12/12 05:14:24;;;;;;;10.25;6.95;;;5.80;99.90;;;;;;5020607;28;20661;-72
2021/12/12 05:17:05;;;;;;;15.15;6.15;;;5.70;99.90;;;;;;5016570;28;20051;-72
2021/12/12 05:19:33;;;;;;;12.65;6.68;;;5.80;99.90;;;;;;5011107;28;20037;-73
2021/12/12 05:22:08;;;;;;;8.25;6.18;;;5.80;99.90;;;;;;5036347;28;20075;-73
2021/12/12 05:24:37;;;;;;;12.60;7.68;;;5.80;99.90;;;;;;5021564;28;20047;-72
2021/12/12 05:27:13;;;;;;;11.38;7.20;;;5.80;99.90;;;;;;5009317;28;20033;-71
2021/12/12 05:30:24;;;;;;;11.53;7.13;;;5.90;99.90;;;;;;5030385;28;20041;-72
2021/12/12 05:32:51;;;;;;;13.15;7.20;;;5.80;99.90;;;;;;5029572;28;20426;-73
2021/12/12 05:35:21;;;;;;;13.32;7.15;;;5.90;99.90;;;;;;5025532;28;20045;-73
2021/12/12 05:37:50;;;;;;;12.50;7.80;;;5.80;99.90;;;;;;5003854;28;20390;-72
2021/12/12 05:40:18;;;;;;;13.75;7.50;;;5.90;99.90;;;;;;5038980;28;20596;-72
2021/12/12 05:42:43;;;;;;;14.50;7.93;;;5.90;99.90;;;;;;5039177;28;20167;-73
2021/12/12 05:45:10;;;;;;;13.40;7.07;;;5.90;99.90;;;;;;5038432;28;20824;-72
2021/12/12 05:47:37;;;;;;;;;;;5.90;99.90;;;;;;5030431;28;20055;-72
2021/12/12 05:50:11;;;;;;;10.75;6.78;;;5.90;99.90;;;;;;5021913;28;20373;-72
2021/12/12 05:52:43;;;;;;;14.70;7.78;;;5.90;99.90;;;;;;5040912;28;20033;-72
2021/12/12 05:55:13;;;;;;;18.58;7.97;;;5.90;99.90;;;;;;5018829;28;20037;-72
2021/12/12 05:57:39;;;;;;;14.55;7.80;;;5.90;99.90;;;;;;5023448;28;20048;-72
2021/12/12 06:00:12;;;;;;;13.23;7.70;;;5.90;99.90;;;;;;5007128;28;20111;-72
2021/12/12 06:02:38;;;;;;;13.00;7.38;;;5.90;99.90;;;;;;5034461;28;20044;-72
2021/12/12 06:05:06;;;;;;;13.02;7.90;;;5.90;99.90;;;;;;5042041;28;20292;-72
2021/12/12 06:07:34;;;;;;;13.40;8.18;;;5.90;99.90;;;;;;5027873;28;20033;-72
2021/12/12 06:10:06;;;;;;;11.98;7.82;;;5.90;99.90;;;;;;5020274;28;20113;-75
2021/12/12 06:12:34;;;;;;;14.85;7.95;;;6.00;99.90;;;;;;5005296;28;20155;-73
2021/12/12 06:15:05;;;;;;;15.13;8.05;;;6.00;99.90;;;;;;5005783;28;20036;-73
2021/12/12 06:17:36;;;;;;;15.65;8.85;;;6.00;99.90;;;;;;5022566;28;20029;-72
2021/12/12 06:20:04;;;;;;;14.25;8.82;;;6.00;99.90;;;;;;5025428;28;20075;-72
2021/12/12 06:22:30;;;;;;;16.05;8.63;;;6.00;99.90;;;;;;5024355;28;20646;-72
2021/12/12 06:24:57;;;;;;;17.00;10.00;;;6.00;99.90;;;;;;5020979;28;20045;-72
2021/12/12 06:27:24;;;;;;;17.10;9.75;;;6.00;99.90;;;;;;5018172;28;20393;-73
2021/12/12 06:29:55;;;;;;;17.75;9.48;;;6.00;99.90;;;;;;5024455;28;20123;-73
2021/12/12 06:32:22;;;;;;;16.90;9.48;;;6.00;99.90;;;;;;5008959;28;20037;-72
2021/12/12 06:34:50;;;;;;;19.40;8.32;;;6.00;99.90;;;;;;5005753;28;20102;-72
2021/12/12 06:37:17;;;;;;;17.30;9.90;;;6.00;99.90;;;;;;5016943;28;20481;-71
2021/12/12 06:39:45;;;;;;;18.00;9.50;;;6.10;99.90;;;;;;5020132;28;20065;-71
2021/12/12 06:42:13;;;;;;;18.42;10.13;;;6.10;99.90;;;;;;5048651;28;20041;-72
2021/12/12 06:44:42;;;;;;;17.70;9.48;;;6.10;99.90;;;;;;5009224;28;20041;-72
2021/12/12 06:47:12;;;;;;;16.38;8.80;;;6.10;99.90;;;;;;5006178;28;20386;-72
2021/12/12 06:49:40;;;;;;;17.50;9.35;;;6.10;99.90;;;;;;5005289;28;20120;-72
2021/12/12 06:52:10;;;;;;;17.40;9.13;;;6.10;99.90;;;;;;5012021;28;20037;-72
2021/12/12 06:54:38;;;;;;;17.42;9.57;;;6.10;99.90;;;;;;5023364;28;20453;-72
2021/12/12 06:57:09;;;;;;;20.00;10.48;;;6.10;99.90;;;;;;5023437;28;20049;-72
2021/12/12 06:59:40;;;;;;;18.00;9.60;;;6.10;99.90;;;;;;5024317;28;20052;-72
2021/12/12 07:02:09;;;;;;;20.13;9.68;;;6.10;99.90;;;;;;5041579;28;20132;-73
2021/12/12 07:04:40;;;;;;;18.48;9.75;;;6.10;99.90;;;;;;5023781;28;20044;-75
2021/12/12 07:07:09;;;;;;;20.20;10.25;;;6.20;99.90;;;;;;5043480;28;20036;-72
2021/12/12 07:09:37;;;;;;;22.30;10.48;;;6.20;99.90;;;;;;5014492;28;20433;-72
2021/12/12 07:12:08;;;;;;;19.67;10.35;;;6.20;99.90;;;;;;5035995;28;20037;-72
2021/12/12 07:14:37;;;;;;;18.10;10.40;;;6.20;99.90;;;;;;5028079;28;20048;-73
2021/12/12 07:17:06;;;;;;;21.80;10.32;;;6.30;99.90;;;;;;5025908;28;20211;-72
2021/12/12 07:19:37;;;;;;;22.30;10.50;;;6.30;99.90;;;;;;5009088;28;20037;-73
2021/12/12 07:22:04;;;;;;;21.98;9.88;;;6.30;99.90;;;;;;5009339;28;20036;-73
2021/12/12 07:24:32;;;;;;;24.73;11.13;;;6.30;99.90;;;;;;5028425;28;20041;-72
2021/12/12 07:26:59;;;;;;;26.00;10.75;;;6.30;99.90;;;;;;5005949;28;20029;-71
2021/12/12 07:29:27;;;;;;;20.80;10.88;;;6.30;99.90;;;;;;5010619;28;20366;-72
2021/12/12 07:31:53;;;;;;;17.15;9.55;;;6.30;99.90;;;;;;5021133;28;20049;-73
2021/12/12 07:34:20;;;;;;;20.73;10.60;;;6.40;99.90;;;;;;5023055;28;20036;-72
2021/12/12 07:36:55;;;;;;;22.20;10.52;;;6.40;99.90;;;;;;5025934;28;20121;-72
2021/12/12 07:39:23;;;;;;;26.25;11.65;;;6.40;99.90;;;;;;5006451;28;20489;-72
2021/12/12 07:41:52;;;;;;;23.02;11.38;;;6.40;99.90;;;;;;5024656;28;20045;-73
2021/12/12 07:44:22;;;;;;;26.08;10.85;;;6.40;99.90;;;;;;5024128;28;20044;-72
2021/12/12 07:46:50;;;;;;;27.80;11.50;;;6.50;99.90;;;;;;5030411;28;20041;-72
2021/12/12 07:49:23;;;;;;;27.05;11.88;;;6.50;99.90;;;;;;5026199;28;20044;-72
2021/12/12 07:51:51;;;;;;;24.95;11.65;;;6.50;99.90;;;;;;5021678;28;20060;-72
2021/12/12 07:54:19;;;;;;;27.33;12.20;;;6.50;99.90;;;;;;5008132;28;20036;-73
2021/12/12 07:56:48;;;;;;;30.88;12.57;;;6.60;99.90;;;;;;5007082;28;20421;-73
2021/12/12 07:59:16;;;;;;;27.80;11.82;;;6.60;99.90;;;;;;5002484;28;20025;-72
2021/12/12 08:01:46;;;;;;;33.03;12.57;;;6.70;99.90;;;;;;5018987;28;20068;-73
2021/12/12 08:04:17;;;;;;;29.83;13.40;;;6.70;99.90;;;;;;5025358;28;20527;-72
2021/12/12 08:06:44;;;;;;;28.05;12.27;;;6.70;99.90;;;;;;5006483;28;20034;-72
2021/12/12 08:09:12;;;;;;;27.10;13.50;;;6.80;99.90;;;;;;5026509;28;20472;-72
2021/12/12 08:11:42;;;;;;;34.00;12.93;;;6.90;99.90;;;;;;5001999;28;20108;-72
2021/12/12 08:14:18;;;;;;;27.25;12.23;;;6.80;99.90;;;;;;5019208;28;20049;-73
2021/12/12 08:16:46;;;;;;;30.63;12.45;;;6.90;99.90;;;;;;5006682;28;20397;-72
2021/12/12 08:19:14;;;;;;;36.28;13.50;;;6.90;99.90;;;;;;5004551;28;20128;-72
2021/12/12 08:21:41;;;;;;;27.88;11.68;;;7.00;99.90;;;;;;5008418;28;20033;-72
2021/12/12 08:24:10;;;;;;;39.13;13.50;;;7.00;99.90;;;;;;5010298;28;20114;-72
2021/12/12 08:26:39;;;;;;;32.13;12.35;;;7.10;99.90;;;;;;5009019;28;20468;-73
2021/12/12 08:29:08;;;;;;;36.90;13.70;;;7.10;99.90;;;;;;5019443;28;20405;-73
2021/12/12 08:31:36;;;;;;;36.40;14.20;;;7.10;99.90;;;;;;5042748;22;20174;-68
2021/12/12 08:34:04;;;;;;;33.20;13.70;;;7.10;99.90;;;;;;5000179;28;20041;-67
2021/12/12 08:36:32;;;;;;;39.97;13.73;;;7.20;99.90;;;;;;5005806;28;20044;-67
2021/12/12 08:38:59;;;;;;;34.00;13.38;;;7.20;99.90;;;;;;5003857;28;20677;-67
2021/12/12 08:41:27;;;;;;;38.85;13.85;;;7.30;99.90;;;;;;5010275;28;20041;-67
2021/12/12 08:43:53;;;;;;;43.88;15.30;;;7.30;99.90;;;;;;5024241;28;20037;-66
2021/12/12 08:46:20;;;;;;;39.93;14.77;;;7.30;99.90;;;;;;5024392;28;20490;-68
2021/12/12 08:48:50;;;;;;;41.55;14.48;;;7.30;99.90;;;;;;5023441;28;20292;-70
2021/12/12 08:51:31;;;;;;;43.30;16.00;;;7.30;99.90;;;;;;5020956;28;20037;-68
2021/12/12 08:54:03;;;;;;;38.95;14.88;;;7.30;99.90;;;;;;5023502;28;20041;-69
2021/12/12 08:56:45;;;;;;;41.53;15.75;;;7.40;99.90;;;;;;5022346;28;20040;-69
2021/12/12 08:59:17;;;;;;;41.72;14.93;;;7.40;99.90;;;;;;5021180;28;20056;-67
2021/12/12 09:01:47;;;;;;;44.10;15.70;;;7.40;99.90;;;;;;5002000;28;20041;-67
2021/12/12 09:04:15;;;;;;;39.13;15.18;;;7.50;99.90;;;;;;5014708;28;20476;-67
2021/12/12 09:06:56;;;;;;;44.63;14.90;;;7.50;99.90;;;;;;5001278;28;20184;-68
2021/12/12 09:09:30;;;;;;;42.25;14.43;;;7.50;99.90;;;;;;5000992;28;20116;-67
2021/12/12 09:12:08;;;;;;;42.25;16.95;;;7.50;99.90;;;;;;5021141;28;20103;-67
2021/12/12 09:14:44;;;;;;;51.63;17.60;;;7.60;99.90;;;;;;5005006;28;20116;-71
2021/12/12 09:17:32;;;;;;;48.65;16.10;;;7.60;99.90;;;;;;5021526;28;20117;-70
2021/12/12 09:20:09;;;;;;;50.28;15.02;;;7.60;99.90;;;;;;5015491;28;20096;-70
2021/12/12 09:22:42;;;;;;;56.50;16.92;;;7.60;99.90;;;;;;5021313;28;20099;-71
2021/12/12 09:25:34;;;;;;;43.40;16.60;;;7.60;99.90;;;;;;5020688;28;20037;-70
2021/12/12 09:28:25;;;;;;;50.45;16.63;;;7.60;99.90;;;;;;4996489;28;20129;-70
2021/12/12 09:30:54;;;;;;;52.90;16.80;;;7.70;99.90;;;;;;5016055;28;20051;-70
2021/12/12 09:33:42;;;;;;;51.30;17.17;;;7.70;99.90;;;;;;5004315;28;20041;-71
2021/12/12 09:36:34;;;;;;;52.92;17.08;;;7.70;99.90;;;;;;5000392;28;20369;-71
2021/12/12 09:39:12;;;;;;;53.60;17.00;;;7.70;99.90;;;;;;5007111;28;20033;-70
2021/12/12 09:41:57;;;;;;;43.72;14.73;;;7.70;99.90;;;;;;5022515;28;20116;-67
2021/12/12 09:44:42;;;;;;;41.15;16.15;;;7.80;99.90;;;;;;5024861;28;20064;-67
2021/12/12 09:47:58;;;;;;;47.30;14.80;;;7.80;99.90;;;;;;5023597;28;20443;-67
2021/12/12 09:53:58;;;;;;;42.95;14.93;;;7.90;99.90;;;;;;5028814;28;20040;-67
2021/12/12 09:56:52;;;;;;;58.75;15.63;;;7.90;99.90;;;;;;4976011;28;20049;-67
2021/12/12 09:59:54;;;;;;;51.75;15.77;;;7.90;99.90;;;;;;5018396;28;20040;-68
2021/12/12 10:03:03;;;;;;;43.72;15.05;;;7.90;99.90;;;;;;4992286;28;20061;-67
2021/12/12 10:05:51;;;;;;;43.67;15.88;;;8.00;99.90;;;;;;4998618;28;20113;-66
2021/12/12 10:08:50;;;;;;;46.10;16.77;;;8.00;99.90;;;;;;5020456;28;20116;-66
2021/12/12 10:11:23;;;;;;;44.95;14.70;;;8.00;99.90;;;;;;4999543;28;20174;-66
2021/12/12 10:14:26;;;;;;;44.25;15.05;;;8.00;99.90;;;;;;5014758;28;20045;-66
2021/12/12 10:17:25;;;;;;;49.70;16.23;;;8.10;99.90;;;;;;4985962;28;20050;-66
2021/12/12 10:20:04;;;;;;;47.00;14.95;;;8.10;99.90;;;;;;4992857;28;20081;-66
2021/12/12 10:22:42;;;;;;;47.35;14.75;;;8.10;99.90;;;;;;5010850;28;20045;-67
2021/12/12 10:25:16;;;;;;;45.13;15.07;;;8.20;99.90;;;;;;5008891;28;20049;-67
2021/12/12 10:28:16;;;;;;;43.00;14.80;;;8.20;99.90;;;;;;5029374;28;20573;-69
2021/12/12 10:30:49;;;;;;;50.05;14.73;;;8.20;99.90;;;;;;5022773;28;20570;-68
2021/12/12 10:33:39;;;;;;;42.72;13.60;;;8.30;99.90;;;;;;5032550;28;20048;-68
2021/12/12 10:36:13;;;;;;;55.25;14.85;;;8.30;99.90;;;;;;5032727;28;20037;-67
2021/12/12 10:38:53;;;;;;;53.53;14.73;;;8.30;99.90;;;;;;5031965;28;20033;-68
2021/12/12 10:41:30;;;;;;;40.70;14.55;;;8.30;99.90;;;;;;5033878;28;20037;-67
2021/12/12 10:44:14;;;;;;;34.45;13.63;;;8.40;99.90;;;;;;5023913;28;20048;-68
2021/12/12 10:46:46;;;;;;;44.10;13.30;;;8.40;99.90;;;;;;5025871;28;20080;-68
2021/12/12 10:49:38;;;;;;;42.22;14.60;;;8.40;99.90;;;;;;5022551;28;20446;-67
2021/12/12 10:52:06;;;;;;;39.17;14.00;;;8.40;99.90;;;;;;5011637;28;20087;-66
2021/12/12 10:54:50;;;;;;;48.53;15.13;;;8.40;99.90;;;;;;5025858;28;20041;-66
2021/12/12 10:57:21;;;;;;;36.83;13.55;;;8.50;99.90;;;;;;5006060;28;20061;-68
2021/12/12 10:59:55;;;;;;;34.97;12.20;;;8.40;99.90;;;;;;5001989;28;20057;-67
2021/12/12 11:02:32;;;;;;;33.60;13.32;;;8.50;99.90;;;;;;5024081;28;20044;-66
2021/12/12 11:05:10;;;;;;;35.47;13.20;;;8.50;99.90;;;;;;5008989;28;20045;-66
2021/12/12 11:08:04;;;;;;;32.97;12.93;;;8.50;99.90;;;;;;5009561;28;20064;-67
2021/12/12 11:10:35;;;;;;;33.53;12.15;;;8.60;99.90;;;;;;5022694;28;20056;-66
2021/12/12 11:13:25;;;;;;;37.97;13.73;;;8.60;99.90;;;;;;5009079;28;20856;-67
2021/12/12 11:16:19;;;;;;;37.55;11.32;;;8.60;99.90;;;;;;5023466;28;20643;-67
2021/12/12 11:18:45;;;;;;;30.02;11.27;;;8.70;99.90;;;;;;5025447;28;20270;-68
2021/12/12 11:21:10;;;;;;;29.33;11.10;;;8.70;99.90;;;;;;5031350;28;20530;-68
2021/12/12 11:23:59;;;;;;;33.30;11.50;;;8.70;99.90;;;;;;5034810;28;20371;-68
2021/12/12 11:26:47;;;;;;;30.17;11.27;;;8.70;99.90;;;;;;5030583;28;20044;-69
2021/12/12 11:29:22;;;;;;;28.30;10.50;;;8.80;99.90;;;;;;5022896;28;20140;-68
2021/12/12 11:32:14;;;;;;;25.40;10.70;;;8.80;99.90;;;;;;5022252;28;20434;-68
2021/12/12 11:34:48;;;;;;;23.65;9.65;;;8.80;99.90;;;;;;5015400;28;20438;-67
2021/12/12 11:37:33;;;;;;;24.73;9.82;;;8.90;99.90;;;;;;5032774;28;20117;-69
2021/12/12 11:40:21;;;;;;;24.42;9.80;;;8.90;99.90;;;;;;5034675;28;20033;-68
2021/12/12 11:43:08;;;;;;;29.90;9.80;;;8.90;99.90;;;;;;5011803;28;20413;-67
2021/12/12 11:45:42;;;;;;;23.25;9.75;;;8.90;99.90;;;;;;5027049;28;20095;-67
2021/12/12 11:48:31;;;;;;;25.85;9.77;;;8.90;99.90;;;;;;5026307;28;20045;-67
2021/12/12 11:51:02;;;;;;;24.70;10.18;;;8.90;99.90;;;;;;5035214;28;20486;-67
2021/12/12 11:53:40;;;;;;;27.98;10.48;;;8.90;99.90;;;;;;5027614;28;20466;-66
2021/12/12 11:56:05;;;;;;;22.25;9.00;;;8.90;99.90;;;;;;5019999;28;20131;-70
2021/12/12 11:58:40;;;;;;;30.07;10.60;;;8.90;99.90;;;;;;5011449;28;20117;-70
2021/12/12 12:01:28;;;;;;;25.10;9.55;;;8.90;99.90;;;;;;5018967;28;20098;-71
2021/12/12 12:04:16;;;;;;;25.00;9.02;;;8.90;99.90;;;;;;5002594;28;20057;-68
2021/12/12 12:07:16;;;;;;;24.77;9.00;;;8.90;99.90;;;;;;5029288;28;20441;-68
2021/12/12 12:09:59;;;;;;;21.25;9.25;;;9.00;99.90;;;;;;4982468;28;20119;-67
2021/12/12 12:12:44;;;;;;;22.73;8.93;;;8.90;99.90;;;;;;5027339;28;20128;-68
2021/12/12 12:15:34;;;;;;;25.63;8.77;;;9.00;99.90;;;;;;5026206;28;20112;-68
2021/12/12 12:18:09;;;;;;;20.90;8.75;;;9.00;99.90;;;;;;5009371;28;20038;-69
2021/12/12 12:20:51;;;;;;;27.42;9.68;;;9.10;99.90;;;;;;5001443;28;20037;-71
2021/12/12 12:23:48;;;;;;;20.92;8.50;;;9.10;99.90;;;;;;5005794;28;20068;-67
2021/12/12 12:29:28;;;;;;;22.33;10.48;;;9.10;99.90;;;;;;5022906;28;20045;-67
2021/12/12 12:32:22;;;;;;;24.10;8.90;;;9.10;99.90;;;;;;5024446;28;20099;-68
2021/12/12 12:35:23;;;;;;;21.48;9.43;;;9.20;99.90;;;;;;5006441;28;20547;-75
2021/12/12 12:38:40;;;;;;;23.25;9.57;;;9.10;99.90;;;;;;5027523;28;20175;-68
2021/12/12 12:41:43;;;;;;;25.38;8.65;;;9.20;99.90;;;;;;5024401;28;20091;-68
2021/12/12 12:44:34;;;;;;;33.35;10.77;;;9.20;99.90;;;;;;5008182;28;20383;-67
2021/12/12 12:47:37;;;;;;;28.85;10.02;;;9.20;99.90;;;;;;5018829;28;20046;-67
2021/12/12 12:50:28;;;;;;;23.13;9.27;;;9.20;99.90;;;;;;5012796;28;20257;-68
2021/12/12 12:53:32;;;;;;;22.48;9.90;;;9.20;99.90;;;;;;4995602;28;20067;-67
2021/12/12 12:56:25;;;;;;;25.92;9.98;;;9.30;99.90;;;;;;5006006;28;20079;-68
2021/12/12 12:59:25;;;;;;;27.98;10.73;;;9.30;99.90;;;;;;5035787;28;20036;-68
2021/12/12 13:02:04;;;;;;;23.95;8.65;;;9.30;99.90;;;;;;5013138;28;20045;-69
2021/12/12 13:04:53;;;;;;;22.88;8.45;;;9.40;99.90;;;;;;5029488;28;20536;-69
2021/12/12 13:07:31;;;;;;;20.88;8.65;;;9.30;99.90;;;;;;4972707;28;20134;-68
2021/12/12 13:10:15;;;;;;;21.92;8.32;;;9.40;99.90;;;;;;5027775;28;20107;-68
2021/12/12 13:12:51;;;;;;;27.38;8.90;;;9.40;99.90;;;;;;5029943;28;20068;-68
2021/12/12 13:15:44;;;;;;;33.70;10.77;;;9.40;99.90;;;;;;5025010;28;20521;-69
2021/12/12 13:18:31;;;;;;;27.98;9.23;;;9.40;99.90;;;;;;5015670;28;20033;-68
2021/12/12 13:21:33;;;;;;;33.83;9.07;;;9.40;99.90;;;;;;5028046;28;20112;-68
2021/12/12 13:24:01;;;;;;;19.80;9.07;;;9.40;99.90;;;;;;4996220;28;20064;-68
2021/12/12 13:27:22;;;;;;;24.45;8.57;;;9.40;99.90;;;;;;4994103;28;20064;-68
2021/12/12 13:30:03;;;;;;;21.58;8.07;;;9.40;99.90;;;;;;5020250;28;20044;-67
2021/12/12 13:32:56;;;;;;;18.27;6.97;;;9.40;99.90;;;;;;5019546;28;20183;-68
2021/12/12 13:35:32;;;;;;;16.35;7.40;;;9.40;99.90;;;;;;4985512;28;20052;-67
2021/12/12 13:38:45;;;;;;;15.65;7.22;;;9.40;99.90;;;;;;4990782;28;20155;-67
2021/12/12 13:41:33;;;;;;;21.35;8.40;;;9.40;99.90;;;;;;4953460;28;20126;-67
2021/12/12 13:44:35;;;;;;;19.42;8.23;;;9.40;99.90;;;;;;5027211;28;20129;-67
2021/12/12 13:47:29;;;;;;;17.42;7.20;;;9.40;99.90;;;;;;5025752;28;20366;-67
2021/12/12 13:50:03;;;;;;;16.42;7.10;;;9.40;99.90;;;;;;5026124;28;20114;-67
2021/12/12 13:52:52;;;;;;;14.85;6.90;;;9.40;99.90;;;;;;5021522;28;20049;-67
2021/12/12 13:55:27;;;;;;;18.67;7.00;;;9.40;99.90;;;;;;5022951;28;20124;-66